createdAt,value
2022-08-03T00:02:20.600Z,18.17
2022-08-03T00:04:48.103Z,18.13
2022-08-03T00:07:15.661Z,17.84
2022-08-03T00:09:43.122Z,17.52
2022-08-03T00:12:10.576Z,17.44
2022-08-03T00:14:37.853Z,17.89
2022-08-03T00:17:05.188Z,18.21
2022-08-03T00:19:32.480Z,18.09
2022-08-03T00:21:59.893Z,17.88
2022-08-03T00:24:27.252Z,17.65
2022-08-03T00:26:57.163Z,17.49
2022-08-03T00:29:24.421Z,17.63
2022-08-03T00:31:59.575Z,17.89
2022-08-03T00:34:35.231Z,17.80
2022-08-03T00:37:04.116Z,17.56
2022-08-03T00:39:31.548Z,17.27
2022-08-03T00:42:03.537Z,17.15
2022-08-03T00:44:30.881Z,17.54
2022-08-03T00:46:59.297Z,17.86
2022-08-03T00:49:28.434Z,17.74
2022-08-03T00:51:57.011Z,17.55
2022-08-03T00:54:24.286Z,17.33
2022-08-03T00:56:59.762Z,17.14
2022-08-03T00:59:28.222Z,17.54
2022-08-03T01:01:55.454Z,17.84
2022-08-03T01:04:23.016Z,17.71
2022-08-03T01:07:03.412Z,17.43
2022-08-03T01:10:00.215Z,17.14
2022-08-03T01:13:01.680Z,17.27
2022-08-03T01:15:32.087Z,17.63
2022-08-03T01:18:04.061Z,17.64
2022-08-03T01:20:34.181Z,17.50
2022-08-03T01:23:05.300Z,17.32
2022-08-03T01:25:54.563Z,17.63
2022-08-03T01:28:59.231Z,17.98
2022-08-03T01:31:29.298Z,17.85
2022-08-03T01:33:59.768Z,17.72
2022-08-03T01:36:30.638Z,17.54
2022-08-03T01:39:01.662Z,17.90
2022-08-03T01:41:43.339Z,18.15
2022-08-03T01:44:30.250Z,17.99
2022-08-03T01:47:02.007Z,17.81
2022-08-03T01:49:30.953Z,17.55
2022-08-03T01:52:04.165Z,17.49
2022-08-03T01:54:40.776Z,17.91
2022-08-03T01:57:08.014Z,18.19
2022-08-03T01:59:35.981Z,18.06
2022-08-03T02:02:29.892Z,17.83
2022-08-03T02:04:53.423Z,17.54
2022-08-03T02:07:26.638Z,17.38
2022-08-03T02:09:54.175Z,17.82
2022-08-03T02:12:22.963Z,18.22
2022-08-03T02:14:50.330Z,18.21
2022-08-03T02:17:17.676Z,18.02
2022-08-03T02:19:45.136Z,17.70
2022-08-03T02:22:13.473Z,17.39
2022-08-03T02:24:41.271Z,17.57
2022-08-03T02:27:18.484Z,17.74
2022-08-03T02:29:48.866Z,17.66
2022-08-03T02:32:18.234Z,17.49
2022-08-03T02:34:47.892Z,17.28
2022-08-03T02:37:15.355Z,17.00
2022-08-03T02:39:43.421Z,17.34
2022-08-03T02:42:12.215Z,17.64
2022-08-03T02:44:40.487Z,17.61
2022-08-03T02:47:09.809Z,17.38
2022-08-03T02:49:50.405Z,17.19
2022-08-03T02:52:23.397Z,17.51
2022-08-03T02:54:53.159Z,17.76
2022-08-03T02:57:20.922Z,17.68
2022-08-03T02:59:48.274Z,17.42
2022-08-03T03:02:17.237Z,17.13
2022-08-03T03:05:52.905Z,16.90
2022-08-03T03:07:50.477Z,17.34
2022-08-03T03:10:22.400Z,17.40
2022-08-03T03:12:52.555Z,17.23
2022-08-03T03:15:20.013Z,17.02
2022-08-03T03:17:49.112Z,16.94
2022-08-03T03:20:16.422Z,17.34
2022-08-03T03:22:59.284Z,17.61
2022-08-03T03:25:26.742Z,17.62
2022-08-03T03:27:54.808Z,17.46
2022-08-03T03:30:22.162Z,17.23
2022-08-03T03:32:50.705Z,17.24
2022-08-03T03:35:19.745Z,17.62
2022-08-03T03:37:47.125Z,17.73
2022-08-03T03:40:14.760Z,17.64
2022-08-03T03:42:42.208Z,17.35
2022-08-03T03:45:10.383Z,17.25
2022-08-03T03:47:39.688Z,17.82
2022-08-03T03:50:07.964Z,18.33
2022-08-03T03:52:35.320Z,18.36
2022-08-03T03:55:02.718Z,18.14
2022-08-03T03:57:30.127Z,17.93
2022-08-03T03:59:57.379Z,17.79
2022-08-03T04:02:25.984Z,18.20
2022-08-03T04:05:12.019Z,18.59
2022-08-03T04:08:30.919Z,18.40
2022-08-03T04:11:13.839Z,18.11
2022-08-03T04:14:01.768Z,17.95
2022-08-03T04:16:31.651Z,17.81
2022-08-03T04:19:06.724Z,18.25
2022-08-03T04:21:34.080Z,18.57
2022-08-03T04:24:02.929Z,18.59
2022-08-03T04:26:34.999Z,18.34
2022-08-03T04:29:02.492Z,18.15
2022-08-03T04:31:29.958Z,17.85
2022-08-03T04:33:57.516Z,18.20
2022-08-03T04:36:27.531Z,18.60
2022-08-03T04:38:59.800Z,18.51
2022-08-03T04:41:27.401Z,18.30
2022-08-03T04:43:59.132Z,18.12
2022-08-03T04:46:27.702Z,17.96
2022-08-03T04:48:56.170Z,18.30
2022-08-03T04:51:23.636Z,18.63
2022-08-03T04:53:50.886Z,18.59
2022-08-03T04:56:18.567Z,18.45
2022-08-03T04:58:46.013Z,18.23
2022-08-03T05:01:13.421Z,18.17
2022-08-03T05:03:40.923Z,18.52
2022-08-03T05:06:11.062Z,18.91
2022-08-03T05:08:46.244Z,18.94
2022-08-03T05:11:16.945Z,18.79
2022-08-03T05:13:45.288Z,18.67
2022-08-03T05:16:14.101Z,18.60
2022-08-03T05:18:44.930Z,18.95
2022-08-03T05:21:15.030Z,19.34
2022-08-03T05:23:42.388Z,19.40
2022-08-03T05:26:12.116Z,19.19
2022-08-03T05:28:39.863Z,19.05
2022-08-03T05:31:21.210Z,18.85
2022-08-03T05:33:49.669Z,18.91
2022-08-03T05:36:17.100Z,19.41
2022-08-03T05:38:44.437Z,19.64
2022-08-03T05:41:22.197Z,19.60
2022-08-03T05:43:54.700Z,19.34
2022-08-03T05:46:23.102Z,19.10
2022-08-03T05:48:50.446Z,18.89
2022-08-03T05:51:17.809Z,19.24
2022-08-03T05:53:45.462Z,19.40
2022-08-03T05:56:16.015Z,19.39
2022-08-03T05:58:53.869Z,19.26
2022-08-03T06:01:24.291Z,19.08
2022-08-03T06:03:52.497Z,18.92
2022-08-03T06:06:19.760Z,19.26
2022-08-03T06:08:47.098Z,19.51
2022-08-03T06:11:14.595Z,19.18
2022-08-03T06:13:43.532Z,18.90
2022-08-03T06:16:10.911Z,18.77
2022-08-03T06:18:38.974Z,18.71
2022-08-03T06:21:13.966Z,18.74
2022-08-03T06:23:54.725Z,19.34
2022-08-03T06:26:26.895Z,19.27
2022-08-03T06:28:55.377Z,19.27
2022-08-03T06:31:33.210Z,19.08
2022-08-03T06:34:31.186Z,18.92
2022-08-03T06:36:52.573Z,18.80
2022-08-03T06:39:20.381Z,18.90
2022-08-03T06:41:47.631Z,19.36
2022-08-03T06:44:16.398Z,19.48
2022-08-03T06:46:46.339Z,19.22
2022-08-03T06:49:14.004Z,19.14
2022-08-03T06:52:06.018Z,19.07
2022-08-03T06:54:32.570Z,19.15
2022-08-03T06:57:00.439Z,19.63
2022-08-03T07:00:08.545Z,19.78
2022-08-03T07:02:19.003Z,19.92
2022-08-03T07:04:48.609Z,19.93
2022-08-03T07:07:16.071Z,19.81
2022-08-03T07:09:57.611Z,19.80
2022-08-03T07:12:26.728Z,19.86
2022-08-03T07:14:58.187Z,20.36
2022-08-03T07:17:28.222Z,20.67
2022-08-03T07:19:55.469Z,20.81
2022-08-03T07:22:22.766Z,20.66
2022-08-03T07:24:50.286Z,20.67
2022-08-03T07:27:17.540Z,20.36
2022-08-03T07:29:44.812Z,20.20
2022-08-03T07:32:12.140Z,20.39
2022-08-03T07:34:39.604Z,20.53
2022-08-03T07:37:06.855Z,21.12
2022-08-03T07:39:36.669Z,21.49
2022-08-03T07:42:04.636Z,21.29
2022-08-03T07:44:31.889Z,21.29
2022-08-03T07:46:59.240Z,21.31
2022-08-03T07:49:31.061Z,21.33
2022-08-03T07:52:17.292Z,21.34
2022-08-03T07:54:44.964Z,21.19
2022-08-03T07:57:12.277Z,21.09
2022-08-03T07:59:56.879Z,21.20
2022-08-03T08:02:27.541Z,21.39
2022-08-03T08:04:55.572Z,21.65
2022-08-03T08:07:23.645Z,21.66
2022-08-03T08:09:53.152Z,21.56
2022-08-03T08:12:20.684Z,21.37
2022-08-03T08:14:48.268Z,21.47
2022-08-03T08:17:15.529Z,21.53
2022-08-03T08:19:51.426Z,21.68
2022-08-03T08:22:29.947Z,21.73
2022-08-03T08:25:01.036Z,21.99
2022-08-03T08:27:29.014Z,22.13
2022-08-03T08:30:19.549Z,22.18
2022-08-03T08:32:47.692Z,22.48
2022-08-03T08:35:15.132Z,22.39
2022-08-03T08:37:43.654Z,22.24
2022-08-03T08:40:20.997Z,22.36
2022-08-03T08:42:58.008Z,22.51
2022-08-03T08:45:26.855Z,22.49
2022-08-03T08:47:59.638Z,22.70
2022-08-03T08:50:28.548Z,22.72
2022-08-03T08:52:56.318Z,22.82
2022-08-03T08:55:24.026Z,22.63
2022-08-03T08:57:54.094Z,22.36
2022-08-03T09:00:21.960Z,22.37
2022-08-03T09:02:49.320Z,22.61
2022-08-03T09:05:18.432Z,22.61
2022-08-03T09:07:46.674Z,22.78
2022-08-03T09:10:14.986Z,22.80
2022-08-03T09:12:43.319Z,22.92
2022-08-03T09:15:33.025Z,23.07
2022-08-03T09:18:01.487Z,23.10
2022-08-03T09:20:34.182Z,23.22
2022-08-03T09:23:19.165Z,23.26
2022-08-03T09:25:51.832Z,23.86
2022-08-03T09:28:59.736Z,24.01
2022-08-03T09:31:06.711Z,24.19
2022-08-03T09:33:36.164Z,23.84
2022-08-03T09:36:03.884Z,23.31
2022-08-03T09:38:31.334Z,23.09
2022-08-03T09:41:00.644Z,22.90
2022-08-03T09:43:29.065Z,22.82
2022-08-03T09:46:04.842Z,22.60
2022-08-03T09:48:33.641Z,22.56
2022-08-03T09:51:14.207Z,22.48
2022-08-03T09:53:57.114Z,22.42
2022-08-03T09:56:44.234Z,22.41
2022-08-03T09:59:12.334Z,22.51
2022-08-03T10:01:42.122Z,22.54
2022-08-03T10:04:15.237Z,22.48
2022-08-03T10:06:43.815Z,22.46
2022-08-03T10:09:16.187Z,22.63
2022-08-03T10:11:44.421Z,22.62
2022-08-03T10:14:19.585Z,22.67
2022-08-03T10:16:47.787Z,22.86
2022-08-03T10:19:15.987Z,22.92
2022-08-03T10:21:58.357Z,22.76
2022-08-03T10:24:27.670Z,22.77
2022-08-03T10:27:03.221Z,22.68
2022-08-03T10:29:30.461Z,22.77
2022-08-03T10:31:59.157Z,22.78
2022-08-03T10:34:27.828Z,22.76
2022-08-03T10:36:57.744Z,22.61
2022-08-03T10:39:29.744Z,22.72
2022-08-03T10:41:59.968Z,22.72
2022-08-03T10:44:34.245Z,22.75
2022-08-03T10:47:02.161Z,22.72
2022-08-03T10:49:34.347Z,22.81
2022-08-03T10:52:12.924Z,22.95
2022-08-03T10:55:07.819Z,23.01
2022-08-03T10:57:52.550Z,23.02
2022-08-03T11:00:27.735Z,23.14
2022-08-03T11:03:01.803Z,23.21
2022-08-03T11:05:32.548Z,23.31
2022-08-03T11:08:20.246Z,23.29
2022-08-03T11:10:48.452Z,23.34
2022-08-03T11:13:17.351Z,23.24
2022-08-03T11:15:47.653Z,23.53
2022-08-03T11:18:16.255Z,23.69
2022-08-03T11:20:59.601Z,23.73
2022-08-03T11:24:04.661Z,23.85
2022-08-03T11:26:34.666Z,24.20
2022-08-03T11:29:28.722Z,24.28
2022-08-03T11:31:56.696Z,24.36
2022-08-03T11:34:24.999Z,24.62
2022-08-03T11:37:23.179Z,24.48
2022-08-03T11:39:53.359Z,24.65
2022-08-03T11:42:25.047Z,24.80
2022-08-03T11:45:01.591Z,24.78
2022-08-03T11:47:29.805Z,24.72
2022-08-03T11:50:00.587Z,24.83
2022-08-03T11:52:28.992Z,25.13
2022-08-03T11:54:57.522Z,25.39
2022-08-03T11:59:01.960Z,25.36
2022-08-03T12:00:32.627Z,25.60
2022-08-03T12:03:02.693Z,25.30
2022-08-03T12:05:51.827Z,25.07
2022-08-03T12:08:36.163Z,25.10
2022-08-03T12:11:07.812Z,25.10
2022-08-03T12:14:45.072Z,25.12
2022-08-03T12:16:36.526Z,24.81
2022-08-03T12:19:07.219Z,24.83
2022-08-03T12:21:34.524Z,25.29
2022-08-03T12:24:04.533Z,25.47
2022-08-03T12:26:59.317Z,25.56
2022-08-03T12:29:27.907Z,25.20
2022-08-03T12:31:55.978Z,24.93
2022-08-03T12:34:23.711Z,25.33
2022-08-03T12:36:52.703Z,25.67
2022-08-03T12:39:24.143Z,25.75
2022-08-03T12:41:53.808Z,25.80
2022-08-03T12:44:30.470Z,25.87
2022-08-03T12:47:01.505Z,25.59
2022-08-03T12:49:30.510Z,25.70
2022-08-03T12:52:01.744Z,25.97
2022-08-03T12:54:35.142Z,26.11
2022-08-03T12:57:03.317Z,25.88
2022-08-03T12:59:40.646Z,25.57
2022-08-03T13:02:23.590Z,25.97
2022-08-03T13:04:52.221Z,25.94
2022-08-03T13:07:20.306Z,25.52
2022-08-03T13:09:57.471Z,24.99
2022-08-03T13:12:26.563Z,24.89
2022-08-03T13:14:56.785Z,24.82
2022-08-03T13:17:24.464Z,24.85
2022-08-03T13:19:52.024Z,24.97
2022-08-03T13:22:27.758Z,24.92
2022-08-03T13:24:58.695Z,24.74
2022-08-03T13:28:05.339Z,24.66
2022-08-03T13:30:13.890Z,24.91
2022-08-03T13:32:48.510Z,25.10
2022-08-03T13:35:16.408Z,25.47
2022-08-03T13:37:44.147Z,25.54
2022-08-03T13:40:16.145Z,25.65
2022-08-03T13:42:44.585Z,25.96
2022-08-03T13:45:12.146Z,25.82
2022-08-03T13:47:39.413Z,26.07
2022-08-03T13:50:07.264Z,25.80
2022-08-03T13:52:35.471Z,25.59
2022-08-03T13:55:04.111Z,25.39
2022-08-03T13:58:04.378Z,25.32
2022-08-03T14:00:27.680Z,25.08
2022-08-03T14:03:13.173Z,24.96
2022-08-03T14:05:42.402Z,24.69
2022-08-03T14:08:10.263Z,24.44
2022-08-03T14:10:40.984Z,24.36
2022-08-03T14:13:08.964Z,24.20
2022-08-03T14:15:38.371Z,24.09
2022-08-03T14:18:15.397Z,23.92
2022-08-03T14:20:50.158Z,24.00
2022-08-03T14:23:21.630Z,24.00
2022-08-03T14:25:52.370Z,23.88
2022-08-03T14:28:22.918Z,23.86
2022-08-03T14:30:51.542Z,23.94
2022-08-03T14:33:18.825Z,23.70
2022-08-03T14:35:46.196Z,23.92
2022-08-03T14:38:13.749Z,24.04
2022-08-03T14:40:41.335Z,23.95
2022-08-03T14:43:08.659Z,23.86
2022-08-03T14:45:35.906Z,23.69
2022-08-03T14:50:32.949Z,23.62
2022-08-03T14:50:55.707Z,23.68
2022-08-03T14:53:23.080Z,23.66
2022-08-03T14:55:51.873Z,23.52
2022-08-03T14:58:23.405Z,23.52
2022-08-03T15:00:51.674Z,23.54
2022-08-03T15:03:26.204Z,23.58
2022-08-03T15:05:54.541Z,23.62
2022-08-03T15:08:22.964Z,23.50
2022-08-03T15:10:51.033Z,23.62
2022-08-03T15:13:18.431Z,23.52
2022-08-03T15:15:45.842Z,23.50
2022-08-03T15:18:13.299Z,23.36
2022-08-03T15:20:44.964Z,23.29
2022-08-03T15:23:14.700Z,23.22
2022-08-03T15:26:28.639Z,23.26
2022-08-03T15:28:31.191Z,23.20
2022-08-03T15:30:58.584Z,23.16
2022-08-03T15:33:25.896Z,23.17
2022-08-03T15:35:53.662Z,23.16
2022-08-03T15:38:25.785Z,23.04
2022-08-03T15:40:54.982Z,23.09
2022-08-03T15:43:23.377Z,23.18
2022-08-03T15:46:19.046Z,23.12
2022-08-03T15:48:38.759Z,23.28
2022-08-03T15:51:06.368Z,23.27
2022-08-03T15:53:34.024Z,23.32
2022-08-03T15:56:05.176Z,23.35
2022-08-03T15:59:04.664Z,23.36
2022-08-03T16:01:22.653Z,23.37
2022-08-03T16:03:50.062Z,23.36
2022-08-03T16:06:17.474Z,23.38
2022-08-03T16:08:56.957Z,23.37
2022-08-03T16:11:24.317Z,23.39
2022-08-03T16:14:13.691Z,23.32
2022-08-03T16:16:41.660Z,23.30
2022-08-03T16:19:09.010Z,23.21
2022-08-03T16:21:47.929Z,23.14
2022-08-03T16:24:17.445Z,23.06
2022-08-03T16:26:47.253Z,23.06
2022-08-03T16:29:22.385Z,23.07
2022-08-03T16:31:52.336Z,23.03
2022-08-03T16:34:20.580Z,22.95
2022-08-03T16:36:48.044Z,22.96
2022-08-03T16:39:15.522Z,22.91
2022-08-03T16:41:54.102Z,22.87
2022-08-03T16:44:30.188Z,22.85
2022-08-03T16:46:58.243Z,22.81
2022-08-03T16:49:54.781Z,22.69
2022-08-03T16:52:13.391Z,22.66
2022-08-03T16:54:40.970Z,22.61
2022-08-03T16:57:10.606Z,22.54
2022-08-03T16:59:39.421Z,22.45
2022-08-03T17:02:10.563Z,22.37
2022-08-03T17:04:40.084Z,22.26
2022-08-03T17:07:08.869Z,22.17
2022-08-03T17:09:38.286Z,22.09
2022-08-03T17:12:10.892Z,22.00
2022-08-03T17:14:38.512Z,21.92
2022-08-03T17:17:08.998Z,21.89
2022-08-03T17:19:47.149Z,22.39
2022-08-03T17:22:18.650Z,22.91
2022-08-03T17:24:47.995Z,23.01
2022-08-03T17:28:42.190Z,22.88
2022-08-03T17:30:09.897Z,22.70
2022-08-03T17:32:42.331Z,22.54
2022-08-03T17:35:10.639Z,22.40
2022-08-03T17:37:57.677Z,22.26
2022-08-03T17:40:25.582Z,22.11
2022-08-03T17:42:53.305Z,22.01
2022-08-03T17:45:20.767Z,21.92
2022-08-03T17:47:57.475Z,21.84
2022-08-03T17:50:32.192Z,21.78
2022-08-03T17:53:07.655Z,21.71
2022-08-03T17:55:56.821Z,21.69
2022-08-03T17:59:02.361Z,22.28
2022-08-03T18:02:22.322Z,22.82
2022-08-03T18:05:16.092Z,22.76
2022-08-03T18:08:01.644Z,22.60
2022-08-03T18:10:35.583Z,22.39
2022-08-03T18:13:19.828Z,22.22
2022-08-03T18:15:49.738Z,22.03
2022-08-03T18:18:32.513Z,21.90
2022-08-03T18:21:06.743Z,21.76
2022-08-03T18:23:37.734Z,21.64
2022-08-03T18:26:11.839Z,21.54
2022-08-03T18:28:39.900Z,21.51
2022-08-03T18:31:10.123Z,22.04
2022-08-03T18:34:16.703Z,22.56
2022-08-03T18:36:30.506Z,22.61
2022-08-03T18:39:03.231Z,22.47
2022-08-03T18:41:34.737Z,22.28
2022-08-03T18:44:08.661Z,22.07
2022-08-03T18:47:16.879Z,21.84
2022-08-03T18:50:20.195Z,21.66
2022-08-03T18:52:53.782Z,21.46
2022-08-03T18:55:33.655Z,21.27
2022-08-03T18:58:24.983Z,21.15
2022-08-03T19:00:58.655Z,21.75
2022-08-03T19:03:43.376Z,22.12
2022-08-03T19:06:19.411Z,22.09
2022-08-03T19:08:50.102Z,21.82
2022-08-03T19:11:27.868Z,21.53
2022-08-03T19:13:57.016Z,21.33
2022-08-03T19:16:48.007Z,21.12
2022-08-03T19:19:17.627Z,20.90
2022-08-03T19:21:46.420Z,20.75
2022-08-03T19:24:16.732Z,21.13
2022-08-03T19:26:48.587Z,21.51
2022-08-03T19:29:21.041Z,21.50
2022-08-03T19:31:58.872Z,21.32
2022-08-03T19:34:26.625Z,21.09
2022-08-03T19:36:55.312Z,20.88
2022-08-03T19:39:27.803Z,20.79
2022-08-03T19:41:56.664Z,20.68
2022-08-03T19:44:26.524Z,20.58
2022-08-03T19:47:16.912Z,21.04
2022-08-03T19:50:05.145Z,21.50
2022-08-03T19:52:35.769Z,21.40
2022-08-03T19:55:07.612Z,21.28
2022-08-03T19:57:40.515Z,21.12
2022-08-03T20:00:12.679Z,20.93
2022-08-03T20:02:43.526Z,20.79
2022-08-03T20:05:15.475Z,20.62
2022-08-03T20:07:48.240Z,21.02
2022-08-03T20:10:17.150Z,21.45
2022-08-03T20:12:45.795Z,21.38
2022-08-03T20:15:13.459Z,21.18
2022-08-03T20:17:57.125Z,20.97
2022-08-03T20:20:31.503Z,20.66
2022-08-03T20:23:00.657Z,20.44
2022-08-03T20:25:38.350Z,20.25
2022-08-03T20:28:15.402Z,20.68
2022-08-03T20:30:47.208Z,20.98
2022-08-03T20:33:18.210Z,20.89
2022-08-03T20:35:49.200Z,20.72
2022-08-03T20:38:20.137Z,20.51
2022-08-03T20:40:54.856Z,20.30
2022-08-03T20:43:22.284Z,20.10
2022-08-03T20:45:59.799Z,19.95
2022-08-03T20:48:39.939Z,20.53
2022-08-03T20:51:19.692Z,20.97
2022-08-03T20:53:59.840Z,20.94
2022-08-03T20:56:35.895Z,20.71
2022-08-03T20:59:05.622Z,20.44
2022-08-03T21:01:36.514Z,20.10
2022-08-03T21:04:22.339Z,19.91
2022-08-03T21:06:56.729Z,19.75
2022-08-03T21:09:40.117Z,20.20
2022-08-03T21:12:15.254Z,20.53
2022-08-03T21:14:53.533Z,20.49
2022-08-03T21:17:39.183Z,20.26
2022-08-03T21:20:09.243Z,20.04
2022-08-03T21:22:38.037Z,19.84
2022-08-03T21:25:08.617Z,19.69
2022-08-03T21:27:36.614Z,20.07
2022-08-03T21:30:08.944Z,20.36
2022-08-03T21:32:40.465Z,20.36
2022-08-03T21:35:13.275Z,20.20
2022-08-03T21:37:41.230Z,20.01
2022-08-03T21:40:11.091Z,19.82
2022-08-03T21:42:39.856Z,19.61
2022-08-03T21:45:09.698Z,19.44
2022-08-03T21:47:39.828Z,19.87
2022-08-03T21:50:10.032Z,20.27
2022-08-03T21:52:46.002Z,20.22
2022-08-03T21:55:18.512Z,20.01
2022-08-03T21:57:52.200Z,19.76
2022-08-03T22:00:20.833Z,19.53
2022-08-03T22:02:55.539Z,19.30
2022-08-03T22:05:29.106Z,19.68
2022-08-03T22:08:14.107Z,20.03
2022-08-03T22:10:45.249Z,19.90
2022-08-03T22:13:20.597Z,19.69
2022-08-03T22:16:04.507Z,19.45
2022-08-03T22:18:31.749Z,19.26
2022-08-03T22:20:59.032Z,19.10
2022-08-03T22:23:26.450Z,19.51
2022-08-03T22:25:53.708Z,19.82
2022-08-03T22:28:21.074Z,19.79
2022-08-03T22:33:35.019Z,19.39
2022-08-03T22:36:02.277Z,19.13
2022-08-03T22:38:30.055Z,18.93
2022-08-03T22:40:57.389Z,19.33
2022-08-03T22:43:25.774Z,19.72
2022-08-03T22:46:09.922Z,19.68
2022-08-03T22:48:41.221Z,19.38
2022-08-03T22:51:09.261Z,19.16
2022-08-03T22:53:36.733Z,18.90
2022-08-03T22:56:04.459Z,18.72
2022-08-03T22:58:34.068Z,19.21
2022-08-03T23:01:07.357Z,19.58
2022-08-03T23:03:59.264Z,19.58
2022-08-03T23:06:23.682Z,19.33
2022-08-03T23:08:50.926Z,18.99
2022-08-03T23:11:18.692Z,18.83
2022-08-03T23:13:47.706Z,19.21
2022-08-03T23:16:15.045Z,19.63
2022-08-03T23:18:56.011Z,19.59
2022-08-03T23:21:53.749Z,19.42
2022-08-03T23:24:24.580Z,19.15
2022-08-03T23:26:57.704Z,18.92
2022-08-03T23:29:25.101Z,18.76
2022-08-03T23:31:52.619Z,19.21
2022-08-03T23:34:38.627Z,19.66
2022-08-03T23:37:06.073Z,19.69
2022-08-03T23:39:34.917Z,19.52
2022-08-03T23:42:03.349Z,19.29
2022-08-03T23:44:30.903Z,19.05
2022-08-03T23:46:58.274Z,18.87
2022-08-03T23:49:25.605Z,19.30
2022-08-03T23:52:29.618Z,19.75
2022-08-03T23:55:18.792Z,19.68
2022-08-03T23:57:54.000Z,19.32
